Time;durP1;ratioP1;P1;durP2;ratioP2;P2;SDS_P1;SDS_P2;PMS_P1;PMS_P2;Temp;Humidity;BMP_temperature;BMP_pressure;BME280_temperature;BME280_humidity;BME280_pressure;Samples;Min_cycle;Max_cycle;Signal;HPM_P1;HPM_P2
2021/12/31 00:01:47;;;;;;;1.40;0.70;;;;;;;;;;4968602;28;20102;-73
2021/12/31 00:04:13;;;;;;;2.53;0.52;;;;;;;;;;4963292;28;20544;-75
2021/12/31 00:06:42;;;;;;;1.70;0.52;;;;;;;;;;4970663;28;20042;-73
2021/12/31 00:09:08;;;;;;;1.15;0.60;;;;;;;;;;4970808;28;20019;-74
2021/12/31 00:11:35;;;;;;;1.38;0.75;;;;;;;;;;4968356;28;20023;-74
2021/12/31 00:14:01;;;;;;;1.80;0.63;;;;;;;;;;4964000;28;20063;-74
2021/12/31 00:16:27;;;;;;;2.63;0.90;;;;;;;;;;4970218;28;20026;-74
2021/12/31 00:18:54;;;;;;;1.13;0.85;;;;;;;;;;4967264;28;20027;-74
2021/12/31 00:21:20;;;;;;;1.00;0.80;;;;;;;;;;4973176;28;20027;-74
2021/12/31 00:23:46;;;;;;;2.10;0.88;;;;;;;;;;4967179;28;20037;-72
2021/12/31 00:26:12;;;;;;;1.20;0.70;;;;;;;;;;4973198;28;20026;-76
2021/12/31 00:28:38;;;;;;;0.98;0.80;;;;;;;;;;4973456;28;20018;-75
2021/12/31 00:31:04;;;;;;;1.63;0.82;;;;;;;;;;4969905;28;20026;-74
2021/12/31 00:33:30;;;;;;;2.63;0.90;;;;;;;;;;4973048;28;20033;-74
2021/12/31 00:35:56;;;;;;;3.00;0.98;;;;;;;;;;4972732;28;20022;-74
2021/12/31 00:38:22;;;;;;;0.93;0.70;;;;;;;;;;4973260;28;20042;-74
2021/12/31 00:40:48;;;;;;;3.88;0.73;;;;;;;;;;4971040;28;20456;-75
2021/12/31 00:43:14;;;;;;;3.53;0.60;;;;;;;;;;4971439;28;20042;-74
2021/12/31 00:45:41;;;;;;;1.88;0.80;;;;;;;;;;4973344;28;20027;-75
2021/12/31 00:48:10;;;;;;;2.80;0.77;;;;;;;;;;4975469;28;20502;-74
2021/12/31 00:50:37;;;;;;;1.02;0.63;;;;;;;;;;4972959;28;20023;-74
2021/12/31 00:53:04;;;;;;;1.63;0.82;;;;;;;;;;4969699;28;20042;-74
2021/12/31 00:55:30;;;;;;;0.85;0.68;;;;;;;;;;4975843;28;20022;-75
2021/12/31 00:57:56;;;;;;;2.10;0.80;;;;;;;;;;4972440;28;20034;-74
2021/12/31 01:00:23;;;;;;;0.90;0.70;;;;;;;;;;4969776;28;20472;-74
2021/12/31 01:02:49;;;;;;;0.63;0.60;;;;;;;;;;4971206;28;20531;-74
2021/12/31 01:05:15;;;;;;;1.25;0.60;;;;;;;;;;4968994;28;20031;-74
2021/12/31 01:07:42;;;;;;;2.03;0.82;;;;;;;;;;4976560;28;20464;-75
2021/12/31 01:10:12;;;;;;;2.55;0.63;;;;;;;;;;4976165;28;20030;-74
2021/12/31 01:12:38;;;;;;;1.65;0.68;;;;;;;;;;4976077;28;20015;-74
2021/12/31 01:15:09;;;;;;;1.27;0.80;;;;;;;;;;4974645;28;20436;-74
2021/12/31 01:19:44;;;;;;;2.13;0.90;;;;;;;;;;4976418;28;20019;-74
2021/12/31 01:20:31;;;;;;;1.65;0.93;;;;;;;;;;4970906;28;20038;-75
2021/12/31 01:22:57;;;;;;;2.05;1.10;;;;;;;;;;4975254;28;20396;-74
2021/12/31 01:25:23;;;;;;;1.60;1.02;;;;;;;;;;4975153;28;20023;-75
2021/12/31 01:27:49;;;;;;;1.60;0.90;;;;;;;;;;4975609;28;20079;-74
2021/12/31 01:30:16;;;;;;;1.90;1.17;;;;;;;;;;4976125;28;20050;-74
2021/12/31 01:32:42;;;;;;;3.25;1.38;;;;;;;;;;4976128;28;20038;-75
2021/12/31 01:35:09;;;;;;;1.73;1.00;;;;;;;;;;4975973;28;20027;-75
2021/12/31 01:37:35;;;;;;;2.72;1.15;;;;;;;;;;4976282;28;20053;-75
2021/12/31 01:40:01;;;;;;;4.22;1.10;;;;;;;;;;4975315;28;20460;-75
2021/12/31 01:42:37;;;;;;;1.33;0.90;;;;;;;;;;4975123;28;20365;-75
2021/12/31 01:45:04;;;;;;;2.33;1.10;;;;;;;;;;4969302;28;20118;-74
2021/12/31 01:47:36;;;;;;;1.10;0.93;;;;;;;;;;4975849;28;20035;-75
2021/12/31 01:50:07;;;;;;;3.35;1.17;;;;;;;;;;4975148;28;20029;-74
2021/12/31 01:52:34;;;;;;;1.10;0.80;;;;;;;;;;4975736;28;20027;-75
2021/12/31 01:55:00;;;;;;;1.08;0.98;;;;;;;;;;4975059;28;20035;-74
2021/12/31 01:57:27;;;;;;;3.80;0.90;;;;;;;;;;4975568;28;20102;-74
2021/12/31 01:59:53;;;;;;;2.45;1.00;;;;;;;;;;4975088;28;20379;-73
2021/12/31 02:02:19;;;;;;;1.30;1.00;;;;;;;;;;4975968;28;20023;-74
2021/12/31 02:04:45;;;;;;;2.40;1.05;;;;;;;;;;4975022;28;20035;-71
2021/12/31 02:07:12;;;;;;;1.83;0.95;;;;;;;;;;4975291;28;20027;-74
2021/12/31 02:09:45;;;;;;;2.50;1.08;;;;;;;;;;4975630;28;20058;-74
2021/12/31 02:12:11;;;;;;;2.50;1.77;;;;;;;;;;4975339;28;20023;-74
2021/12/31 02:14:37;;;;;;;2.17;1.20;;;;;;;;;;4967416;28;20137;-74
2021/12/31 02:17:07;;;;;;;1.70;0.85;;;;;;;;;;4974780;28;20082;-74
2021/12/31 02:19:33;;;;;;;4.95;1.10;;;;;;;;;;4975201;28;20015;-73
2021/12/31 02:22:00;;;;;;;1.60;0.90;;;;;;;;;;4974198;28;20118;-74
2021/12/31 02:24:26;;;;;;;2.17;1.05;;;;;;;;;;4975030;28;20113;-74
2021/12/31 02:26:52;;;;;;;3.83;1.10;;;;;;;;;;4974412;28;20050;-74
2021/12/31 02:29:19;;;;;;;1.33;1.10;;;;;;;;;;4975119;28;20077;-74
2021/12/31 02:31:45;;;;;;;1.70;0.90;;;;;;;;;;4974988;28;20030;-74
2021/12/31 02:34:11;;;;;;;2.13;0.90;;;;;;;;;;4974864;28;20022;-74
2021/12/31 02:36:37;;;;;;;1.27;1.15;;;;;;;;;;4974795;28;20023;-75
2021/12/31 02:39:04;;;;;;;3.30;1.15;;;;;;;;;;4974504;28;20019;-74
2021/12/31 02:41:30;;;;;;;1.63;1.00;;;;;;;;;;4974853;28;20058;-75
2021/12/31 02:43:56;;;;;;;1.20;0.90;;;;;;;;;;4974299;28;20134;-74
2021/12/31 02:46:22;;;;;;;0.98;0.90;;;;;;;;;;4974731;28;20038;-75
2021/12/31 02:48:55;;;;;;;0.95;0.60;;;;;;;;;;4974159;28;20095;-75
2021/12/31 02:51:21;;;;;;;2.10;0.85;;;;;;;;;;4974677;28;20106;-74
2021/12/31 02:53:51;;;;;;;2.60;0.90;;;;;;;;;;4974021;28;20499;-74
2021/12/31 02:56:18;;;;;;;1.80;0.90;;;;;;;;;;4974673;28;20069;-74
2021/12/31 02:58:44;;;;;;;2.20;0.90;;;;;;;;;;4974284;28;20035;-75
2021/12/31 03:01:12;;;;;;;1.02;0.93;;;;;;;;;;4973814;28;20019;-75
2021/12/31 03:03:38;;;;;;;3.88;1.05;;;;;;;;;;4974455;28;20027;-75
2021/12/31 03:06:04;;;;;;;4.20;1.20;;;;;;;;;;4973740;28;20030;-75
2021/12/31 03:08:31;;;;;;;1.52;0.80;;;;;;;;;;4974352;28;20027;-75
2021/12/31 03:10:59;;;;;;;1.27;0.75;;;;;;;;;;4973683;28;20086;-74
2021/12/31 03:13:25;;;;;;;2.03;0.90;;;;;;;;;;4973895;28;20059;-75
2021/12/31 03:15:51;;;;;;;2.90;1.00;;;;;;;;;;4973782;28;20034;-72
2021/12/31 03:18:19;;;;;;;2.58;1.10;;;;;;;;;;4974282;28;20101;-75
2021/12/31 03:20:57;;;;;;;1.00;0.90;;;;;;;;;;4974194;28;20027;-75
2021/12/31 03:23:27;;;;;;;1.70;0.80;;;;;;;;;;4973878;28;20023;-75
2021/12/31 03:25:53;;;;;;;1.53;0.83;;;;;;;;;;4973425;28;20031;-74
2021/12/31 03:28:19;;;;;;;1.20;0.80;;;;;;;;;;4974169;28;20097;-74
2021/12/31 03:30:46;;;;;;;1.70;0.80;;;;;;;;;;4973900;28;20062;-74
2021/12/31 03:33:12;;;;;;;2.17;1.00;;;;;;;;;;4973377;28;20035;-74
2021/12/31 03:35:38;;;;;;;1.38;0.75;;;;;;;;;;4973733;28;20019;-74
2021/12/31 03:38:04;;;;;;;2.40;0.73;;;;;;;;;;4972960;28;20027;-74
2021/12/31 03:40:30;;;;;;;2.28;0.98;;;;;;;;;;4973662;28;20464;-74
2021/12/31 03:42:56;;;;;;;2.20;0.82;;;;;;;;;;4973080;28;20031;-74
2021/12/31 03:45:22;;;;;;;1.98;1.02;;;;;;;;;;4973787;28;20476;-74
2021/12/31 03:47:48;;;;;;;1.55;0.80;;;;;;;;;;4973630;28;20038;-73
2021/12/31 03:50:14;;;;;;;2.25;0.80;;;;;;;;;;4973273;28;20137;-74
2021/12/31 03:52:40;;;;;;;2.40;1.30;;;;;;;;;;4973326;28;20480;-74
2021/12/31 03:55:07;;;;;;;1.85;1.17;;;;;;;;;;4973029;28;20071;-75
2021/12/31 03:57:34;;;;;;;2.90;1.23;;;;;;;;;;4973511;28;20027;-74
2021/12/31 04:00:00;;;;;;;2.65;1.00;;;;;;;;;;4972959;28;20021;-74
2021/12/31 04:02:26;;;;;;;1.85;1.13;;;;;;;;;;4973646;28;20054;-74
2021/12/31 04:04:52;;;;;;;2.30;0.80;;;;;;;;;;4972721;28;20440;-75
2021/12/31 04:07:19;;;;;;;1.65;0.95;;;;;;;;;;4973287;28;20468;-75
2021/12/31 04:09:45;;;;;;;1.40;0.80;;;;;;;;;;4973333;28;20035;-74
2021/12/31 04:12:11;;;;;;;2.38;1.10;;;;;;;;;;4973103;28;20026;-74
2021/12/31 04:14:37;;;;;;;2.60;1.23;;;;;;;;;;4973580;28;20126;-74
2021/12/31 04:17:03;;;;;;;1.58;1.20;;;;;;;;;;4972752;28;20387;-74
2021/12/31 04:19:30;;;;;;;1.70;0.77;;;;;;;;;;4973504;28;20035;-74
2021/12/31 04:21:56;;;;;;;2.33;1.27;;;;;;;;;;4972678;28;20110;-74
2021/12/31 04:27:07;;;;;;;3.28;1.60;;;;;;;;;;4972553;28;20077;-74
2021/12/31 04:29:34;;;;;;;5.85;1.30;;;;;;;;;;4973443;28;20069;-74
2021/12/31 04:32:00;;;;;;;1.92;1.10;;;;;;;;;;4972669;28;20026;-74
2021/12/31 04:34:27;;;;;;;1.83;0.90;;;;;;;;;;4973314;28;20027;-74
2021/12/31 04:36:53;;;;;;;1.75;1.25;;;;;;;;;;4972304;28;20026;-73
2021/12/31 04:39:19;;;;;;;5.40;1.40;;;;;;;;;;4972641;28;20034;-74
2021/12/31 04:41:45;;;;;;;3.47;1.13;;;;;;;;;;4979561;28;20037;-75
2021/12/31 04:44:11;;;;;;;3.13;1.27;;;;;;;;;;4987593;28;20047;-75
2021/12/31 04:46:38;;;;;;;2.55;1.17;;;;;;;;;;4979997;28;20055;-73
2021/12/31 04:49:04;;;;;;;3.08;1.20;;;;;;;;;;4971990;28;20090;-74
2021/12/31 04:51:30;;;;;;;3.20;1.20;;;;;;;;;;4972543;28;20110;-74
2021/12/31 04:53:56;;;;;;;1.48;1.00;;;;;;;;;;4971517;28;20461;-74
2021/12/31 04:56:22;;;;;;;2.80;1.20;;;;;;;;;;4972112;28;20093;-74
2021/12/31 04:58:48;;;;;;;2.17;1.02;;;;;;;;;;4972333;28;20027;-74
2021/12/31 05:01:14;;;;;;;1.15;0.88;;;;;;;;;;4973201;28;20027;-75
2021/12/31 05:03:40;;;;;;;3.78;0.90;;;;;;;;;;4975857;28;20027;-74
2021/12/31 05:06:06;;;;;;;3.28;1.20;;;;;;;;;;4975614;28;20369;-75
2021/12/31 05:08:32;;;;;;;1.58;1.17;;;;;;;;;;4975924;28;20106;-75
2021/12/31 05:10:58;;;;;;;1.52;1.20;;;;;;;;;;4975491;28;20128;-74
2021/12/31 05:13:24;;;;;;;3.33;1.02;;;;;;;;;;4975641;28;20142;-75
2021/12/31 05:15:52;;;;;;;3.50;1.13;;;;;;;;;;4975772;28;20162;-77
2021/12/31 05:18:18;;;;;;;1.95;1.00;;;;;;;;;;4975686;28;20436;-74
2021/12/31 05:20:44;;;;;;;1.85;1.10;;;;;;;;;;4975459;28;20430;-74
2021/12/31 05:23:11;;;;;;;3.90;1.40;;;;;;;;;;4974616;28;20030;-73
2021/12/31 05:25:37;;;;;;;1.77;1.23;;;;;;;;;;4975611;28;20476;-75
2021/12/31 05:28:03;;;;;;;2.30;1.20;;;;;;;;;;4974681;28;20035;-75
2021/12/31 05:30:29;;;;;;;1.50;1.05;;;;;;;;;;4975597;28;20195;-76
2021/12/31 05:32:55;;;;;;;1.90;1.00;;;;;;;;;;4974889;28;20065;-76
2021/12/31 05:35:21;;;;;;;2.80;1.40;;;;;;;;;;4975219;28;20481;-77
2021/12/31 05:37:48;;;;;;;2.03;1.50;;;;;;;;;;4975161;28;20566;-76
2021/12/31 05:40:14;;;;;;;6.75;1.27;;;;;;;;;;4974733;28;20070;-75
2021/12/31 05:42:40;;;;;;;1.75;1.20;;;;;;;;;;4972614;28;20524;-73
2021/12/31 05:45:06;;;;;;;1.48;1.02;;;;;;;;;;4969264;28;20039;-76
2021/12/31 05:47:32;;;;;;;1.83;1.10;;;;;;;;;;4975204;28;20543;-75
2021/12/31 05:49:58;;;;;;;2.15;0.95;;;;;;;;;;4974707;28;20098;-76
2021/12/31 05:52:24;;;;;;;4.00;1.38;;;;;;;;;;4975406;28;20150;-75
2021/12/31 05:54:50;;;;;;;2.35;1.30;;;;;;;;;;4975122;28;20031;-76
2021/12/31 05:57:16;;;;;;;3.38;2.00;;;;;;;;;;4974378;28;20034;-73
2021/12/31 05:59:42;;;;;;;8.10;2.90;;;;;;;;;;4974963;28;20102;-74
2021/12/31 06:02:08;;;;;;;4.25;2.10;;;;;;;;;;4974366;28;20182;-73
2021/12/31 06:04:36;;;;;;;5.22;2.08;;;;;;;;;;4974591;28;20031;-75
2021/12/31 06:07:01;;;;;;;3.72;2.17;;;;;;;;;;4974343;28;20464;-74
2021/12/31 06:09:29;;;;;;;2.13;1.92;;;;;;;;;;4973614;28;20073;-74
2021/12/31 06:11:55;;;;;;;4.10;2.38;;;;;;;;;;4973629;28;20046;-72
2021/12/31 06:14:21;;;;;;;4.15;2.25;;;;;;;;;;4966262;28;20507;-74
2021/12/31 06:16:48;;;;;;;4.93;2.53;;;;;;;;;;4974474;28;20464;-76
2021/12/31 06:19:14;;;;;;;4.13;2.55;;;;;;;;;;4973984;28;20362;-74
2021/12/31 06:21:41;;;;;;;4.53;2.83;;;;;;;;;;4974632;28;20019;-74
2021/12/31 06:24:07;;;;;;;8.82;3.38;;;;;;;;;;4967799;28;20077;-76
2021/12/31 06:26:34;;;;;;;4.40;3.25;;;;;;;;;;4974475;28;20027;-76
2021/12/31 06:29:00;;;;;;;4.57;3.33;;;;;;;;;;4973827;28;20041;-76
2021/12/31 06:31:26;;;;;;;5.50;3.33;;;;;;;;;;4974628;28;20026;-76
2021/12/31 06:33:52;;;;;;;5.95;3.60;;;;;;;;;;4974390;28;20026;-76
2021/12/31 06:36:19;;;;;;;4.07;2.47;;;;;;;;;;4973769;28;20034;-77
2021/12/31 06:38:45;;;;;;;4.28;2.88;;;;;;;;;;4974013;28;20380;-77
2021/12/31 06:41:11;;;;;;;5.53;2.97;;;;;;;;;;4973637;28;20409;-77
2021/12/31 06:43:38;;;;;;;3.88;2.08;;;;;;;;;;4974037;28;20121;-76
2021/12/31 06:46:04;;;;;;;2.92;2.22;;;;;;;;;;4973354;28;20365;-76
2021/12/31 06:48:30;;;;;;;4.05;1.65;;;;;;;;;;4973976;28;20026;-76
2021/12/31 06:50:56;;;;;;;2.67;1.55;;;;;;;;;;4973879;28;20085;-74
2021/12/31 06:53:22;;;;;;;3.15;2.17;;;;;;;;;;4974079;28;20066;-76
2021/12/31 06:55:48;;;;;;;2.47;2.00;;;;;;;;;;4974036;28;20456;-75
2021/12/31 06:58:14;;;;;;;3.70;2.28;;;;;;;;;;4973807;28;20030;-76
2021/12/31 07:00:41;;;;;;;4.88;2.53;;;;;;;;;;4974434;28;20022;-77
2021/12/31 07:03:11;;;;;;;5.25;3.38;;;;;;;;;;4973832;28;20460;-76
2021/12/31 07:05:37;;;;;;;;;;;;;;;;;;4974786;28;20475;-77
2021/12/31 07:08:04;;;;;;;4.18;2.50;;;;;;;;;;4974119;28;19917;-77
2021/12/31 07:10:30;;;;;;;3.40;2.65;;;;;;;;;;4974241;28;20030;-76
2021/12/31 07:12:57;;;;;;;4.15;2.88;;;;;;;;;;4973703;28;20377;-72
2021/12/31 07:15:23;;;;;;;6.20;3.25;;;;;;;;;;4974201;28;20035;-76
2021/12/31 07:17:49;;;;;;;4.72;3.20;;;;;;;;;;4973790;28;20038;-76
2021/12/31 07:20:15;;;;;;;8.93;3.45;;;;;;;;;;4973293;28;20023;-75
2021/12/31 07:22:41;;;;;;;5.28;2.70;;;;;;;;;;4973600;28;20038;-75
2021/12/31 07:25:07;;;;;;;4.20;2.95;;;;;;;;;;4967435;28;20082;-76
2021/12/31 07:27:33;;;;;;;7.47;3.17;;;;;;;;;;4974326;28;20054;-76
2021/12/31 07:29:59;;;;;;;4.25;3.17;;;;;;;;;;4973199;28;20065;-77
2021/12/31 07:32:26;;;;;;;7.65;4.00;;;;;;;;;;4973923;28;20035;-77
2021/12/31 07:34:52;;;;;;;5.50;3.50;;;;;;;;;;4973578;28;20439;-76
2021/12/31 07:37:18;;;;;;;6.88;4.00;;;;;;;;;;4973290;28;20022;-76
2021/12/31 07:39:48;;;;;;;6.13;4.32;;;;;;;;;;4973795;28;20066;-76
2021/12/31 07:42:15;;;;;;;6.28;3.53;;;;;;;;;;4973172;28;20030;-75
2021/12/31 07:44:41;;;;;;;6.43;3.80;;;;;;;;;;4973757;28;20039;-75
2021/12/31 07:47:07;;;;;;;5.95;3.78;;;;;;;;;;4972729;28;20030;-76
2021/12/31 07:49:33;;;;;;;7.57;4.22;;;;;;;;;;4973605;28;20483;-76
2021/12/31 07:51:59;;;;;;;7.15;3.67;;;;;;;;;;4972850;28;20077;-76
2021/12/31 07:54:25;;;;;;;7.07;3.95;;;;;;;;;;4973512;28;20092;-76
2021/12/31 07:56:51;;;;;;;7.07;3.83;;;;;;;;;;4970064;28;20027;-75
2021/12/31 07:59:17;;;;;;;5.57;3.60;;;;;;;;;;4974610;28;20027;-72
2021/12/31 08:01:43;;;;;;;5.95;3.67;;;;;;;;;;4974356;28;20023;-74
2021/12/31 08:04:09;;;;;;;5.93;3.75;;;;;;;;;;4972934;28;20076;-75
2021/12/31 08:06:35;;;;;;;6.50;3.60;;;;;;;;;;4972908;28;20484;-74
2021/12/31 08:09:01;;;;;;;6.95;3.78;;;;;;;;;;4972937;28;20023;-74
2021/12/31 08:11:27;;;;;;;6.07;4.32;;;;;;;;;;4973469;28;20349;-71
2021/12/31 08:13:53;;;;;;;6.07;4.07;;;;;;;;;;4977084;28;20054;-74
2021/12/31 08:16:19;;;;;;;8.32;4.70;;;;;;;;;;4991998;28;20038;-74
2021/12/31 08:18:45;;;;;;;5.10;3.97;;;;;;;;;;4992628;28;20026;-74
2021/12/31 08:21:11;;;;;;;5.22;4.07;;;;;;;;;;4992157;28;20348;-72
2021/12/31 08:23:37;;;;;;;7.38;3.72;;;;;;;;;;4984404;28;20260;-73
2021/12/31 08:26:05;;;;;;;7.95;4.45;;;;;;;;;;4972562;28;20031;-73
2021/12/31 08:28:31;;;;;;;7.70;4.22;;;;;;;;;;4953929;29;20024;-74
2021/12/31 08:30:58;;;;;;;7.28;4.40;;;;;;;;;;4954062;29;20102;-73
2021/12/31 08:33:25;;;;;;;5.78;4.03;;;;;;;;;;4953478;29;20027;-72
2021/12/31 08:35:51;;;;;;;6.43;4.47;;;;;;;;;;4956306;28;20023;-73
2021/12/31 08:38:17;;;;;;;6.65;4.50;;;;;;;;;;4957261;29;20106;-73
2021/12/31 08:40:43;;;;;;;8.13;4.82;;;;;;;;;;4956151;29;20442;-71
2021/12/31 08:43:09;;;;;;;8.07;4.78;;;;;;;;;;4957068;29;20063;-70
2021/12/31 08:45:35;;;;;;;7.90;5.05;;;;;;;;;;4962378;28;20088;-71
2021/12/31 08:48:01;;;;;;;6.30;5.05;;;;;;;;;;4968851;28;20057;-70
2021/12/31 08:50:28;;;;;;;6.35;4.90;;;;;;;;;;4965686;28;20023;-73
2021/12/31 08:52:54;;;;;;;8.73;5.45;;;;;;;;;;4966397;28;20039;-72
2021/12/31 08:55:20;;;;;;;6.65;4.68;;;;;;;;;;4964110;28;20027;-72
2021/12/31 08:57:46;;;;;;;8.85;5.40;;;;;;;;;;4962572;28;20447;-72
2021/12/31 09:00:12;;;;;;;7.50;4.90;;;;;;;;;;4961267;28;20027;-73
2021/12/31 09:02:39;;;;;;;6.30;4.38;;;;;;;;;;4962298;28;20440;-72
2021/12/31 09:05:06;;;;;;;6.40;4.55;;;;;;;;;;4961621;28;20040;-70
2021/12/31 09:07:33;;;;;;;5.40;4.00;;;;;;;;;;4964610;28;20142;-70
2021/12/31 09:09:59;;;;;;;10.38;5.10;;;;;;;;;;4966121;28;20069;-74
2021/12/31 09:12:25;;;;;;;5.78;4.57;;;;;;;;;;4966538;28;20461;-70
2021/12/31 09:14:51;;;;;;;6.47;4.68;;;;;;;;;;4959069;28;20054;-69
2021/12/31 09:17:17;;;;;;;6.57;4.20;;;;;;;;;;4969079;28;20015;-71
2021/12/31 09:19:43;;;;;;;4.65;3.40;;;;;;;;;;4970309;28;20019;-71
2021/12/31 09:22:10;;;;;;;9.07;4.97;;;;;;;;;;4970027;28;20114;-71
2021/12/31 09:24:36;;;;;;;6.13;4.88;;;;;;;;;;4968225;28;20031;-74
2021/12/31 09:27:02;;;;;;;6.53;4.85;;;;;;;;;;4969082;28;20038;-72
2021/12/31 09:29:28;;;;;;;7.20;4.68;;;;;;;;;;4967936;28;20022;-71
2021/12/31 09:31:54;;;;;;;5.97;4.78;;;;;;;;;;4967886;28;20361;-71
2021/12/31 09:34:20;;;;;;;7.22;5.38;;;;;;;;;;4969577;28;20023;-72
2021/12/31 09:36:46;;;;;;;10.77;6.45;;;;;;;;;;4971216;28;20030;-71
2021/12/31 09:39:12;;;;;;;9.05;6.53;;;;;;;;;;4968755;28;20030;-73
2021/12/31 09:41:38;;;;;;;6.93;4.88;;;;;;;;;;4971684;28;20019;-74
2021/12/31 09:44:04;;;;;;;8.00;4.60;;;;;;;;;;4968850;28;20154;-73
2021/12/31 09:46:30;;;;;;;5.35;3.78;;;;;;;;;;4971068;28;20492;-73
2021/12/31 09:48:56;;;;;;;6.43;4.68;;;;;;;;;;4971214;28;20054;-73
2021/12/31 09:51:23;;;;;;;5.72;4.60;;;;;;;;;;4971282;28;20058;-73
2021/12/31 09:53:51;;;;;;;4.10;3.67;;;;;;;;;;4967344;28;20038;-73
2021/12/31 09:56:17;;;;;;;5.95;3.58;;;;;;;;;;4965058;28;20399;-72
2021/12/31 09:58:43;;;;;;;5.07;3.67;;;;;;;;;;4971852;28;20041;-73
2021/12/31 10:01:09;;;;;;;4.38;3.50;;;;;;;;;;4970940;28;20062;-72
2021/12/31 10:03:36;;;;;;;8.38;4.03;;;;;;;;;;4973343;28;20455;-73
2021/12/31 10:06:02;;;;;;;4.28;3.28;;;;;;;;;;4970102;28;20026;-73
2021/12/31 10:08:30;;;;;;;3.88;3.47;;;;;;;;;;4973633;28;20109;-74
2021/12/31 10:11:06;;;;;;;4.07;3.50;;;;;;;;;;4970444;28;20441;-71
2021/12/31 10:13:33;;;;;;;8.23;4.10;;;;;;;;;;4963462;28;20403;-73
2021/12/31 10:15:59;;;;;;;2.95;2.60;;;;;;;;;;4963470;28;20556;-73
2021/12/31 10:18:29;;;;;;;4.93;3.05;;;;;;;;;;4966077;28;20094;-73
2021/12/31 10:20:55;;;;;;;3.05;2.67;;;;;;;;;;4960376;28;20038;-73
2021/12/31 10:23:21;;;;;;;3.47;2.67;;;;;;;;;;4964678;28;20031;-73
2021/12/31 10:25:48;;;;;;;2.95;2.22;;;;;;;;;;4964255;28;20531;-72
2021/12/31 10:28:17;;;;;;;3.90;2.78;;;;;;;;;;4963642;28;20027;-74
2021/12/31 10:30:44;;;;;;;6.45;2.60;;;;;;;;;;4962670;28;20023;-73
2021/12/31 10:33:10;;;;;;;3.00;2.40;;;;;;;;;;4962710;28;20019;-70
2021/12/31 10:35:39;;;;;;;3.47;2.45;;;;;;;;;;4964363;28;20047;-74
2021/12/31 10:38:06;;;;;;;3.47;2.67;;;;;;;;;;4962579;28;20153;-72
2021/12/31 10:40:33;;;;;;;3.40;2.78;;;;;;;;;;4962732;28;20057;-73
2021/12/31 10:43:07;;;;;;;5.05;2.83;;;;;;;;;;4946521;28;20026;-73
2021/12/31 10:45:34;;;;;;;4.95;3.03;;;;;;;;;;4950737;28;20035;-73
2021/12/31 10:48:07;;;;;;;4.13;2.88;;;;;;;;;;4961963;28;20510;-74
2021/12/31 10:50:34;;;;;;;3.03;2.72;;;;;;;;;;4962774;28;20094;-73
2021/12/31 10:53:23;;;;;;;3.85;2.85;;;;;;;;;;4964078;28;20106;-73
2021/12/31 10:55:49;;;;;;;3.83;2.45;;;;;;;;;;4959940;28;20035;-73
2021/12/31 10:58:22;;;;;;;3.08;2.38;;;;;;;;;;4961927;28;20038;-73
2021/12/31 11:00:48;;;;;;;3.60;2.70;;;;;;;;;;4961489;28;20026;-74
2021/12/31 11:03:14;;;;;;;3.53;3.10;;;;;;;;;;4953723;29;20472;-73
2021/12/31 11:05:41;;;;;;;3.05;2.63;;;;;;;;;;4954714;29;20381;-74
2021/12/31 11:08:07;;;;;;;3.28;2.40;;;;;;;;;;4953960;29;20027;-71
2021/12/31 11:10:37;;;;;;;2.97;2.42;;;;;;;;;;4954034;29;20023;-74
2021/12/31 11:13:09;;;;;;;4.72;3.33;;;;;;;;;;4957076;28;20047;-74
2021/12/31 11:15:36;;;;;;;4.20;2.80;;;;;;;;;;4973195;28;20538;-70
2021/12/31 11:18:02;;;;;;;5.55;3.35;;;;;;;;;;4972883;28;20388;-72
2021/12/31 11:20:28;;;;;;;4.65;2.83;;;;;;;;;;4972731;28;20129;-73
2021/12/31 11:22:54;;;;;;;4.22;3.08;;;;;;;;;;4973422;28;20030;-72
2021/12/31 11:25:22;;;;;;;3.42;2.60;;;;;;;;;;4972625;28;20085;-72
2021/12/31 11:27:49;;;;;;;2.97;2.67;;;;;;;;;;4971995;28;20023;-71
2021/12/31 11:30:30;;;;;;;3.00;2.30;;;;;;;;;;4972561;28;20066;-71
2021/12/31 11:32:56;;;;;;;5.25;3.10;;;;;;;;;;4973681;28;20023;-71
2021/12/31 11:35:39;;;;;;;3.05;2.50;;;;;;;;;;4971300;28;20478;-72
2021/12/31 11:38:07;;;;;;;4.30;2.38;;;;;;;;;;4973114;28;20506;-72
2021/12/31 11:40:37;;;;;;;4.63;2.40;;;;;;;;;;4972368;28;20062;-72
2021/12/31 11:43:15;;;;;;;5.07;2.58;;;;;;;;;;4972610;28;20035;-72
2021/12/31 11:45:41;;;;;;;3.42;2.40;;;;;;;;;;4971449;28;20121;-72
2021/12/31 11:48:27;;;;;;;2.50;2.00;;;;;;;;;;4971612;28;20031;-70
2021/12/31 11:51:05;;;;;;;4.50;2.50;;;;;;;;;;4973024;28;20089;-72
2021/12/31 11:53:31;;;;;;;2.38;2.17;;;;;;;;;;4970112;28;20034;-73
2021/12/31 11:55:57;;;;;;;3.42;2.47;;;;;;;;;;4973136;28;20106;-72
2021/12/31 11:58:37;;;;;;;2.50;2.00;;;;;;;;;;4972180;28;20031;-71
2021/12/31 12:01:22;;;;;;;2.28;2.00;;;;;;;;;;4972372;28;20078;-71
2021/12/31 12:03:48;;;;;;;2.15;1.85;;;;;;;;;;4972921;28;20035;-72
2021/12/31 12:06:33;;;;;;;3.78;2.15;;;;;;;;;;4971930;28;20365;-71
2021/12/31 12:08:59;;;;;;;3.05;2.10;;;;;;;;;;4973031;28;20031;-71
2021/12/31 12:11:47;;;;;;;3.00;2.08;;;;;;;;;;4978268;28;20030;-71
2021/12/31 12:14:47;;;;;;;2.90;1.90;;;;;;;;;;4967911;28;20058;-71
2021/12/31 12:17:13;;;;;;;2.33;1.95;;;;;;;;;;4936092;28;20081;-71
2021/12/31 12:19:49;;;;;;;1.55;1.45;;;;;;;;;;4979091;28;20472;-72
2021/12/31 12:23:06;;;;;;;2.75;2.25;;;;;;;;;;4978663;28;20068;-71
2021/12/31 12:25:26;;;;;;;3.42;1.83;;;;;;;;;;4970295;28;20039;-71
2021/12/31 12:27:53;;;;;;;4.88;1.90;;;;;;;;;;4979489;28;20050;-71
2021/12/31 12:30:20;;;;;;;3.30;2.08;;;;;;;;;;4978851;28;20034;-71
2021/12/31 12:35:14;;;;;;;1.73;1.35;;;;;;;;;;4978240;28;20439;-70
2021/12/31 12:37:41;;;;;;;3.10;1.67;;;;;;;;;;4979318;28;20076;-71
2021/12/31 12:40:07;;;;;;;2.33;1.90;;;;;;;;;;4979569;28;20058;-72
2021/12/31 12:42:33;;;;;;;1.85;1.65;;;;;;;;;;4978595;28;20026;-71
2021/12/31 12:45:00;;;;;;;2.80;1.55;;;;;;;;;;4978884;28;20039;-71
2021/12/31 12:47:26;;;;;;;2.00;1.58;;;;;;;;;;4978331;28;20026;-71
2021/12/31 12:49:55;;;;;;;2.63;1.83;;;;;;;;;;4979199;28;20029;-71
2021/12/31 12:52:21;;;;;;;1.67;1.58;;;;;;;;;;4978323;28;20392;-71
2021/12/31 12:54:47;;;;;;;2.45;1.30;;;;;;;;;;4979042;28;20109;-71
2021/12/31 12:57:24;;;;;;;1.50;1.27;;;;;;;;;;4978302;28;20093;-71
2021/12/31 12:59:50;;;;;;;1.80;1.50;;;;;;;;;;4979099;28;20081;-72
2021/12/31 13:02:35;;;;;;;2.08;1.20;;;;;;;;;;4978340;28;20460;-71
2021/12/31 13:05:07;;;;;;;2.10;1.50;;;;;;;;;;4978636;28;20379;-72
2021/12/31 13:07:33;;;;;;;1.90;1.40;;;;;;;;;;4977796;28;20597;-72
2021/12/31 13:10:07;;;;;;;1.42;1.20;;;;;;;;;;4979025;28;20026;-72
2021/12/31 13:12:37;;;;;;;2.38;1.67;;;;;;;;;;4978077;28;20034;-72
2021/12/31 13:15:03;;;;;;;;;;;;;;;;;;4978918;28;20058;-71
2021/12/31 13:17:31;;;;;;;1.95;1.23;;;;;;;;;;4978203;28;19917;-71
2021/12/31 13:20:24;;;;;;;2.08;1.55;;;;;;;;;;4978886;28;20029;-73
2021/12/31 13:22:54;;;;;;;1.83;1.55;;;;;;;;;;4973387;28;20101;-71
2021/12/31 13:25:20;;;;;;;3.20;2.40;;;;;;;;;;4974919;28;20031;-72
2021/12/31 13:27:46;;;;;;;3.13;1.60;;;;;;;;;;4975865;28;20033;-71
2021/12/31 13:30:12;;;;;;;1.60;1.40;;;;;;;;;;4975392;28;20431;-71
2021/12/31 13:32:47;;;;;;;1.13;1.02;;;;;;;;;;4975381;28;20031;-71
2021/12/31 13:35:13;;;;;;;1.75;1.35;;;;;;;;;;4975076;28;20117;-70
2021/12/31 13:37:39;;;;;;;1.55;1.17;;;;;;;;;;4975185;28;20089;-71
2021/12/31 13:40:05;;;;;;;2.83;1.48;;;;;;;;;;4975454;28;20046;-71
2021/12/31 13:42:32;;;;;;;1.80;1.52;;;;;;;;;;4975197;28;20073;-71
2021/12/31 13:44:58;;;;;;;3.00;1.52;;;;;;;;;;4975059;28;20043;-71
2021/12/31 13:47:25;;;;;;;2.67;1.75;;;;;;;;;;4974410;28;20046;-72
2021/12/31 13:49:55;;;;;;;2.00;1.30;;;;;;;;;;4975006;28;20062;-71
2021/12/31 13:52:29;;;;;;;2.55;1.60;;;;;;;;;;4974437;28;20376;-72
2021/12/31 13:54:59;;;;;;;1.90;1.50;;;;;;;;;;4975231;28;20376;-73
2021/12/31 13:57:32;;;;;;;1.48;1.38;;;;;;;;;;4974493;28;20110;-72
2021/12/31 14:00:04;;;;;;;2.60;1.20;;;;;;;;;;4974838;28;20030;-73
2021/12/31 14:02:31;;;;;;;1.58;1.42;;;;;;;;;;4974400;28;20041;-73
2021/12/31 14:04:57;;;;;;;1.40;1.20;;;;;;;;;;4974638;28;20023;-72
2021/12/31 14:07:35;;;;;;;1.60;0.95;;;;;;;;;;4974150;28;20027;-72
2021/12/31 14:10:04;;;;;;;1.08;0.93;;;;;;;;;;4974853;28;20031;-72
2021/12/31 14:12:30;;;;;;;2.13;1.30;;;;;;;;;;4974424;28;20054;-73
2021/12/31 14:14:56;;;;;;;3.95;1.70;;;;;;;;;;4974903;28;20152;-73
2021/12/31 14:17:22;;;;;;;2.17;1.58;;;;;;;;;;4974196;28;20082;-73
2021/12/31 14:19:48;;;;;;;3.75;1.73;;;;;;;;;;4974349;28;20476;-74
2021/12/31 14:22:14;;;;;;;2.47;1.98;;;;;;;;;;4974209;28;20023;-72
2021/12/31 14:24:40;;;;;;;2.47;1.85;;;;;;;;;;4974241;28;20039;-75
2021/12/31 14:27:07;;;;;;;2.55;1.88;;;;;;;;;;4974772;28;20058;-73
2021/12/31 14:29:33;;;;;;;1.70;1.60;;;;;;;;;;4974228;28;20031;-73
2021/12/31 14:32:03;;;;;;;2.38;2.05;;;;;;;;;;4974587;28;20472;-72
2021/12/31 14:34:31;;;;;;;2.20;1.73;;;;;;;;;;4973450;28;20061;-72
2021/12/31 14:37:07;;;;;;;2.95;2.13;;;;;;;;;;4974541;28;20019;-72
2021/12/31 14:39:38;;;;;;;2.70;1.63;;;;;;;;;;4973656;28;20795;-72
2021/12/31 14:42:05;;;;;;;2.80;1.80;;;;;;;;;;4974352;28;20061;-73
2021/12/31 14:44:31;;;;;;;4.15;1.73;;;;;;;;;;4973489;28;20027;-72
2021/12/31 14:46:57;;;;;;;2.70;2.00;;;;;;;;;;4972824;28;20392;-72
2021/12/31 14:49:25;;;;;;;2.13;1.80;;;;;;;;;;4972998;28;20019;-72
2021/12/31 14:51:51;;;;;;;3.08;1.88;;;;;;;;;;4973870;28;20489;-72